Time,TemperatureF,DewpointF,PressureIn,WindDirection,WindDirectionDegrees,WindSpeedMPH,WindSpeedGustMPH,Humidity,HourlyPrecipIn,Conditions,Clouds,dailyrainin,SoftwareType,DateUTC
2013-04-09 00:01:00,57.8,52.7,29.80,ENE,68,6.0,6.0,83,0.00,,,0.85,Wunderground v.1.15,2013-04-09 05:01:00,
2013-04-09 00:06:00,57.7,52.6,29.80,ENE,64,7.0,7.0,83,0.00,,,0.85,Wunderground v.1.15,2013-04-09 05:06:00,
2013-04-09 00:12:00,57.6,52.5,29.79,ENE,63,4.0,11.0,83,0.00,,,0.00,Wunderground v.1.15,2013-04-09 05:12:00,
2013-04-09 00:17:00,57.5,52.4,29.79,NE,46,3.0,11.0,83,0.00,,,0.00,Wunderground v.1.15,2013-04-09 05:17:00,
2013-04-09 00:23:00,57.3,52.2,29.78,NE,44,7.0,9.0,83,0.00,,,0.00,Wunderground v.1.15,2013-04-09 05:23:00,
2013-04-09 00:28:00,57.1,52.0,29.78,NE,55,7.0,9.0,83,0.00,,,0.00,Wunderground v.1.15,2013-04-09 05:28:00,
2013-04-09 00:34:00,56.8,51.7,29.78,ENE,64,7.0,11.0,83,0.00,,,0.00,Wunderground v.1.15,2013-04-09 05:34:00,
2013-04-09 00:40:00,56.2,51.1,29.77,ENE,63,5.0,9.0,83,0.00,,,0.00,Wunderground v.1.15,2013-04-09 05:40:00,
2013-04-09 00:46:00,55.7,50.9,29.78,East,80,4.0,12.0,84,0.00,,,0.00,Wunderground v.1.15,2013-04-09 05:46:00,
2013-04-09 00:51:00,55.4,50.6,29.78,ENE,76,7.0,11.0,84,0.00,,,0.00,Wunderground v.1.15,2013-04-09 05:51:00,
2013-04-09 00:56:00,55.2,50.4,29.77,ENE,62,5.0,11.0,84,0.00,,,0.00,Wunderground v.1.15,2013-04-09 05:56:00,
2013-04-09 01:02:00,55.0,50.3,29.77,ENE,71,5.0,9.0,84,0.00,,,0.00,Wunderground v.1.15,2013-04-09 06:02:00,
2013-04-09 01:07:00,54.9,50.2,29.78,ENE,64,6.0,9.0,84,0.00,,,0.00,Wunderground v.1.15,2013-04-09 06:07:00,
2013-04-09 01:12:00,54.9,50.5,29.78,ENE,67,5.0,6.0,85,0.00,,,0.00,Wunderground v.1.15,2013-04-09 06:12:00,
2013-04-09 01:18:00,54.9,50.5,29.77,ENE,60,4.0,8.0,85,0.00,,,0.00,Wunderground v.1.15,2013-04-09 06:18:00,
2013-04-09 01:24:00,54.8,50.4,29.78,ENE,71,0.0,7.0,85,0.00,,,0.00,Wunderground v.1.15,2013-04-09 06:24:00,
2013-04-09 01:30:00,54.8,50.4,29.78,East,82,3.0,4.0,85,0.00,,,0.00,Wunderground v.1.15,2013-04-09 06:30:00,
2013-04-09 01:35:00,54.9,50.5,29.78,NE,50,7.0,9.0,85,0.00,,,0.00,Wunderground v.1.15,2013-04-09 06:35:00,
2013-04-09 01:41:00,54.9,50.5,29.78,East,88,3.0,7.0,85,0.00,,,0.00,Wunderground v.1.15,2013-04-09 06:41:00,
2013-04-09 01:46:00,54.9,50.5,29.79,East,91,0.0,7.0,85,0.00,,,0.00,Wunderground v.1.15,2013-04-09 06:46:00,
2013-04-09 01:52:00,55.2,50.8,29.80,East,98,2.0,2.0,85,0.00,,,0.00,Wunderground v.1.15,2013-04-09 06:52:00,
2013-04-09 01:58:00,55.2,50.8,29.81,ESE,105,0.0,4.0,85,0.00,,,0.01,Wunderground v.1.15,2013-04-09 06:58:00,
2013-04-09 02:03:00,55.1,51.0,29.81,ESE,106,3.0,5.0,86,1.08,,,0.06,Wunderground v.1.15,2013-04-09 07:03:00,
2013-04-09 02:08:00,54.9,51.1,29.80,East,96,0.0,7.0,87,0.51,,,0.12,Wunderground v.1.15,2013-04-09 07:08:00,
2013-04-09 02:13:00,54.5,51.0,29.79,East,84,5.0,6.0,88,0.32,,,0.17,Wunderground v.1.15,2013-04-09 07:13:00,
2013-04-09 02:18:00,54.3,51.1,29.78,ENE,78,4.0,14.0,89,0.18,,,0.19,Wunderground v.1.15,2013-04-09 07:18:00,
2013-04-09 02:23:00,54.1,51.2,29.77,East,92,3.0,13.0,90,0.13,,,0.20,Wunderground v.1.15,2013-04-09 07:23:00,
2013-04-09 02:28:00,54.0,51.1,29.77,East,94,3.0,13.0,90,0.19,,,0.22,Wunderground v.1.15,2013-04-09 07:28:00,
2013-04-09 02:33:00,53.9,51.0,29.77,ENE,64,3.0,11.0,90,0.21,,,0.24,Wunderground v.1.15,2013-04-09 07:33:00,
2013-04-09 02:38:00,53.8,51.2,29.77,ENE,65,0.0,11.0,91,0.16,,,0.25,Wunderground v.1.15,2013-04-09 07:38:00,
2013-04-09 02:43:00,53.7,51.1,29.78,ENE,63,3.0,11.0,91,0.18,,,0.27,Wunderground v.1.15,2013-04-09 07:43:00,
2013-04-09 02:48:00,53.6,51.0,29.78,ENE,69,4.0,11.0,91,0.51,,,0.30,Wunderground v.1.15,2013-04-09 07:48:00,
2013-04-09 02:53:00,53.5,50.9,29.78,ENE,67,2.0,7.0,91,1.10,,,0.37,Wunderground v.1.15,2013-04-09 07:53:00,
2013-04-09 02:58:00,53.4,50.8,29.78,NE,53,3.0,7.0,91,1.19,,,0.47,Wunderground v.1.15,2013-04-09 07:58:00,
2013-04-09 03:03:00,53.2,50.6,29.77,East,98,2.0,10.0,91,1.12,,,0.57,Wunderground v.1.15,2013-04-09 08:03:00,
2013-04-09 03:08:00,53.0,50.4,29.78,East,95,2.0,10.0,91,0.77,,,0.65,Wunderground v.1.15,2013-04-09 08:08:00,
2013-04-09 03:13:00,52.7,50.4,29.77,East,86,6.0,10.0,92,0.63,,,0.72,Wunderground v.1.15,2013-04-09 08:13:00,
2013-04-09 03:18:00,52.4,50.1,29.76,East,95,3.0,10.0,92,1.71,,,0.82,Wunderground v.1.15,2013-04-09 08:18:00,
2013-04-09 03:23:00,52.3,50.0,29.74,East,86,12.0,12.0,92,2.37,,,0.97,Wunderground v.1.15,2013-04-09 08:23:00,
2013-04-09 03:28:00,52.2,49.9,29.76,ESE,107,6.0,12.0,92,1.85,,,1.15,Wunderground v.1.15,2013-04-09 08:28:00,
2013-04-09 03:33:00,52.1,49.8,29.76,East,79,7.0,11.0,92,0.38,,,1.28,Wunderground v.1.15,2013-04-09 08:33:00,
2013-04-09 03:38:00,52.2,50.2,29.76,East,88,2.0,11.0,93,0.11,,,1.28,Wunderground v.1.15,2013-04-09 08:38:00,
2013-04-09 03:43:00,52.3,50.3,29.76,East,89,6.0,10.0,93,0.09,,,1.29,Wunderground v.1.15,2013-04-09 08:43:00,
2013-04-09 03:48:00,52.4,50.4,29.75,East,100,5.0,10.0,93,0.07,,,1.29,Wunderground v.1.15,2013-04-09 08:48:00,
2013-04-09 03:53:00,53.0,51.3,29.75,East,99,4.0,9.0,94,0.06,,,1.30,Wunderground v.1.15,2013-04-09 08:53:00,
2013-04-09 03:58:00,53.4,51.7,29.75,East,98,6.0,9.0,94,0.06,,,1.30,Wunderground v.1.15,2013-04-09 08:58:00,
2013-04-09 04:03:00,53.5,51.5,29.74,East,88,11.0,11.0,93,0.05,,,1.30,Wunderground v.1.15,2013-04-09 09:03:00,
2013-04-09 04:08:00,53.4,51.4,29.74,ENE,78,5.0,11.0,93,0.00,,,1.30,Wunderground v.1.15,2013-04-09 09:08:00,
2013-04-09 04:13:00,53.7,52.0,29.73,East,101,2.0,12.0,94,0.00,,,1.30,Wunderground v.1.15,2013-04-09 09:13:00,
2013-04-09 04:18:00,54.1,52.4,29.74,ESE,102,1.0,12.0,94,0.00,,,1.30,Wunderground v.1.15,2013-04-09 09:18:00,
2013-04-09 04:23:00,54.1,52.1,29.74,ESE,103,0.0,6.0,93,0.00,,,1.30,Wunderground v.1.15,2013-04-09 09:23:00,
2013-04-09 04:28:00,53.9,51.9,29.73,East,88,4.0,6.0,93,0.00,,,1.31,Wunderground v.1.15,2013-04-09 09:28:00,
2013-04-09 04:33:00,54.1,52.4,29.73,East,94,6.0,11.0,94,0.00,,,1.31,Wunderground v.1.15,2013-04-09 09:33:00,
2013-04-09 04:38:00,54.6,52.9,29.74,ESE,117,6.0,14.0,94,0.00,,,1.31,Wunderground v.1.15,2013-04-09 09:38:00,
2013-04-09 04:43:00,54.8,52.8,29.74,SE,135,4.0,11.0,93,0.00,,,1.31,Wunderground v.1.15,2013-04-09 09:43:00,
2013-04-09 04:48:00,54.7,52.4,29.74,SE,129,12.0,18.0,92,0.00,,,1.32,Wunderground v.1.15,2013-04-09 09:48:00,
2013-04-09 04:53:00,54.6,52.3,29.74,ESE,115,0.0,18.0,92,0.00,,,1.32,Wunderground v.1.15,2013-04-09 09:53:00,
2013-04-09 04:58:00,54.1,51.5,29.74,SE,128,14.0,18.0,91,0.00,,,1.32,Wunderground v.1.15,2013-04-09 09:58:00,
2013-04-09 05:03:00,53.6,50.7,29.75,ESE,121,6.0,10.0,90,0.00,,,1.32,Wunderground v.1.15,2013-04-09 10:03:00,
2013-04-09 05:08:00,53.2,50.3,29.75,ESE,118,3.0,14.0,90,0.00,,,1.32,Wunderground v.1.15,2013-04-09 10:08:00,
2013-04-09 05:13:00,52.7,49.8,29.75,East,88,3.0,16.0,90,0.00,,,1.32,Wunderground v.1.15,2013-04-09 10:13:00,
2013-04-09 05:18:00,52.2,49.4,29.75,East,98,1.0,17.0,90,0.00,,,1.32,Wunderground v.1.15,2013-04-09 10:18:00,
2013-04-09 05:23:00,51.9,49.1,29.75,ESE,119,3.0,10.0,90,0.00,,,1.32,Wunderground v.1.15,2013-04-09 10:23:00,
2013-04-09 05:28:00,51.5,48.7,29.75,SSE,153,11.0,12.0,90,0.00,,,1.32,Wunderground v.1.15,2013-04-09 10:28:00,
2013-04-09 05:33:00,51.3,48.5,29.75,SE,144,3.0,9.0,90,0.00,,,1.32,Wunderground v.1.15,2013-04-09 10:33:00,
2013-04-09 05:38:00,51.2,48.4,29.75,ESE,107,3.0,10.0,90,0.00,,,1.32,Wunderground v.1.15,2013-04-09 10:38:00,
2013-04-09 05:43:00,51.0,48.5,29.76,East,92,4.0,13.0,91,0.00,,,1.32,Wunderground v.1.15,2013-04-09 10:43:00,
2013-04-09 05:48:00,51.0,48.5,29.76,ESE,113,9.0,13.0,91,0.00,,,1.32,Wunderground v.1.15,2013-04-09 10:48:00,
2013-04-09 05:53:00,51.0,48.5,29.78,NNE,13,6.0,8.0,91,0.00,,,1.32,Wunderground v.1.15,2013-04-09 10:53:00,
2013-04-09 05:59:00,51.1,48.6,29.78,NNE,13,5.0,12.0,91,0.00,,,1.32,Wunderground v.1.15,2013-04-09 10:59:00,
2013-04-09 06:04:00,51.0,48.5,29.77,East,84,2.0,6.0,91,0.00,,,1.32,Wunderground v.1.15,2013-04-09 11:04:00,
2013-04-09 06:09:00,51.0,48.5,29.76,East,98,3.0,10.0,91,0.00,,,1.32,Wunderground v.1.15,2013-04-09 11:09:00,
2013-04-09 06:14:00,50.9,48.4,29.77,ENE,69,5.0,9.0,91,0.00,,,1.32,Wunderground v.1.15,2013-04-09 11:14:00,
2013-04-09 06:19:00,50.8,48.3,29.77,ENE,60,10.0,11.0,91,0.00,,,1.32,Wunderground v.1.15,2013-04-09 11:19:00,
2013-04-09 06:24:00,50.8,48.3,29.77,NE,50,4.0,11.0,91,0.00,,,1.32,Wunderground v.1.15,2013-04-09 11:24:00,
2013-04-09 06:29:00,50.7,48.2,29.77,NE,51,4.0,11.0,91,0.00,,,1.32,Wunderground v.1.15,2013-04-09 11:29:00,
2013-04-09 06:34:00,50.7,48.2,29.78,ENE,70,5.0,10.0,91,0.00,,,1.32,Wunderground v.1.15,2013-04-09 11:34:00,
2013-04-09 06:39:00,50.6,48.1,29.77,ENE,65,7.0,12.0,91,0.00,,,1.32,Wunderground v.1.15,2013-04-09 11:39:00,
2013-04-09 06:44:00,50.5,48.0,29.78,NE,40,7.0,11.0,91,0.00,,,1.32,Wunderground v.1.15,2013-04-09 11:44:00,
2013-04-09 06:50:00,50.5,48.3,29.78,NE,51,7.0,11.0,92,0.00,,,1.32,Wunderground v.1.15,2013-04-09 11:50:00,
2013-04-09 06:55:00,50.5,48.3,29.78,ENE,63,5.0,11.0,92,0.00,,,1.32,Wunderground v.1.15,2013-04-09 11:55:00,
2013-04-09 07:00:00,50.5,48.3,29.78,ENE,77,9.0,9.0,92,0.00,,,1.32,Wunderground v.1.15,2013-04-09 12:00:00,
2013-04-09 07:05:00,50.6,48.4,29.77,East,80,2.0,9.0,92,0.00,,,1.32,Wunderground v.1.15,2013-04-09 12:05:00,
2013-04-09 07:10:00,50.5,48.3,29.77,East,85,3.0,6.0,92,0.00,,,1.32,Wunderground v.1.15,2013-04-09 12:10:00,
2013-04-09 07:15:00,50.5,48.3,29.76,East,96,3.0,7.0,92,0.00,,,1.32,Wunderground v.1.15,2013-04-09 12:15:00,
2013-04-09 07:20:00,50.5,48.3,29.77,East,96,3.0,10.0,92,0.00,,,1.32,Wunderground v.1.15,2013-04-09 12:20:00,
2013-04-09 07:25:00,50.5,48.3,29.77,East,90,4.0,10.0,92,0.00,,,1.32,Wunderground v.1.15,2013-04-09 12:25:00,
2013-04-09 07:30:00,50.5,48.3,29.76,ENE,74,5.0,9.0,92,0.00,,,1.32,Wunderground v.1.15,2013-04-09 12:30:00,
2013-04-09 07:35:00,50.4,48.2,29.75,East,93,1.0,11.0,92,0.00,,,1.33,Wunderground v.1.15,2013-04-09 12:35:00,
2013-04-09 07:40:00,50.3,48.1,29.75,East,89,6.0,6.0,92,0.00,,,1.33,Wunderground v.1.15,2013-04-09 12:40:00,
2013-04-09 07:45:00,50.2,48.0,29.76,East,92,3.0,11.0,92,0.00,,,1.33,Wunderground v.1.15,2013-04-09 12:45:00,
2013-04-09 07:50:00,50.1,47.9,29.76,SE,129,4.0,6.0,92,0.00,,,1.33,Wunderground v.1.15,2013-04-09 12:50:00,
2013-04-09 07:55:00,50.0,47.8,29.75,East,91,1.0,12.0,92,0.00,,,1.33,Wunderground v.1.15,2013-04-09 12:55:00,
2013-04-09 08:01:00,50.0,47.8,29.75,ESE,103,4.0,4.0,92,0.00,,,1.33,Wunderground v.1.15,2013-04-09 13:01:00,
2013-04-09 08:06:00,50.0,47.8,29.74,East,89,4.0,10.0,92,0.00,,,1.33,Wunderground v.1.15,2013-04-09 13:06:00,
2013-04-09 08:11:00,49.9,47.7,29.74,East,90,2.0,9.0,92,0.00,,,1.33,Wunderground v.1.15,2013-04-09 13:11:00,
2013-04-09 08:16:00,49.9,47.7,29.74,ESE,108,1.0,9.0,92,0.00,,,1.33,Wunderground v.1.15,2013-04-09 13:16:00,
2013-04-09 08:21:00,50.0,47.8,29.75,ESE,116,7.0,7.0,92,0.00,,,1.33,Wunderground v.1.15,2013-04-09 13:21:00,
2013-04-09 08:27:00,50.0,47.8,29.74,East,88,1.0,9.0,92,0.00,,,1.33,Wunderground v.1.15,2013-04-09 13:27:00,
2013-04-09 08:32:00,50.1,47.9,29.74,East,99,2.0,7.0,92,0.00,,,1.33,Wunderground v.1.15,2013-04-09 13:32:00,
2013-04-09 08:37:00,50.1,47.9,29.74,East,86,6.0,7.0,92,0.00,,,1.33,Wunderground v.1.15,2013-04-09 13:37:00,
2013-04-09 08:42:00,50.1,47.9,29.74,East,94,2.0,4.0,92,0.00,,,1.33,Wunderground v.1.15,2013-04-09 13:42:00,
2013-04-09 08:47:00,50.1,47.9,29.74,ESE,123,0.0,7.0,92,0.00,,,1.33,Wunderground v.1.15,2013-04-09 13:47:00,
2013-04-09 08:52:00,50.1,47.9,29.73,East,88,0.0,11.0,92,0.00,,,1.33,Wunderground v.1.15,2013-04-09 13:52:00,
2013-04-09 08:57:00,50.1,47.9,29.73,ESE,106,3.0,11.0,92,0.00,,,1.33,Wunderground v.1.15,2013-04-09 13:57:00,
2013-04-09 09:02:00,50.1,47.9,29.72,ESE,117,3.0,10.0,92,0.00,,,1.33,Wunderground v.1.15,2013-04-09 14:02:00,
2013-04-09 09:07:00,50.1,47.9,29.72,ESE,119,3.0,11.0,92,0.00,,,1.33,Wunderground v.1.15,2013-04-09 14:07:00,
2013-04-09 09:12:00,49.9,47.7,29.72,SE,142,13.0,13.0,92,0.00,,,1.33,Wunderground v.1.15,2013-04-09 14:12:00,
2013-04-09 09:17:00,49.8,47.6,29.72,SE,146,3.0,13.0,92,0.00,,,1.33,Wunderground v.1.15,2013-04-09 14:17:00,
2013-04-09 09:22:00,49.7,47.5,29.72,ESE,107,3.0,12.0,92,0.00,,,1.33,Wunderground v.1.15,2013-04-09 14:22:00,
2013-04-09 09:28:00,49.7,47.5,29.71,SE,125,7.0,12.0,92,0.00,,,1.33,Wunderground v.1.15,2013-04-09 14:28:00,
2013-04-09 09:33:00,49.6,47.4,29.71,ESE,121,9.0,15.0,92,0.23,,,1.36,Wunderground v.1.15,2013-04-09 14:33:00,
2013-04-09 09:38:00,49.6,47.4,29.71,SE,142,4.0,15.0,92,0.08,,,1.36,Wunderground v.1.15,2013-04-09 14:38:00,
2013-04-09 09:43:00,49.6,47.4,29.71,ESE,116,1.0,13.0,92,0.05,,,1.36,Wunderground v.1.15,2013-04-09 14:43:00,
2013-04-09 09:48:00,49.6,47.4,29.71,SE,134,10.0,13.0,92,0.00,,,1.36,Wunderground v.1.15,2013-04-09 14:48:00,
2013-04-09 09:53:00,49.7,47.5,29.72,SE,128,0.0,11.0,92,0.00,,,1.36,Wunderground v.1.15,2013-04-09 14:53:00,
2013-04-09 09:58:00,49.7,47.5,29.72,SE,135,11.0,13.0,92,0.00,,,1.37,Wunderground v.1.15,2013-04-09 14:58:00,
2013-04-09 10:03:00,49.7,47.8,29.72,SE,127,4.0,15.0,93,0.00,,,1.37,Wunderground v.1.15,2013-04-09 15:03:00,
2013-04-09 10:08:00,49.8,47.9,29.73,SE,132,13.0,15.0,93,0.00,,,1.37,Wunderground v.1.15,2013-04-09 15:08:00,
2013-04-09 10:13:00,49.8,47.9,29.73,SE,135,2.0,11.0,93,0.04,,,1.38,Wunderground v.1.15,2013-04-09 15:13:00,
2013-04-09 10:18:00,49.9,48.0,29.73,SE,127,2.0,11.0,93,0.04,,,1.38,Wunderground v.1.15,2013-04-09 15:18:00,
2013-04-09 10:25:00,50.0,48.1,29.74,SE,132,4.0,12.0,93,0.04,,,1.38,Wunderground v.1.15,2013-04-09 15:25:00,
2013-04-09 10:30:00,50.1,48.2,29.74,SE,127,3.0,6.0,93,0.00,,,1.38,Wunderground v.1.15,2013-04-09 15:30:00,
2013-04-09 10:35:00,50.3,48.4,29.74,SE,132,5.0,9.0,93,0.00,,,1.38,Wunderground v.1.15,2013-04-09 15:35:00,
2013-04-09 10:41:00,50.3,48.4,29.74,SE,130,1.0,7.0,93,0.57,,,1.40,Wunderground v.1.15,2013-04-09 15:41:00,
2013-04-09 10:46:00,50.3,48.4,29.74,SE,140,5.0,10.0,93,0.21,,,1.41,Wunderground v.1.15,2013-04-09 15:46:00,
2013-04-09 10:51:00,50.2,48.3,29.73,SE,132,9.0,12.0,93,0.63,,,1.45,Wunderground v.1.15,2013-04-09 15:51:00,
2013-04-09 10:56:00,50.3,48.4,29.72,SE,131,7.0,12.0,93,0.20,,,1.46,Wunderground v.1.15,2013-04-09 15:56:00,
2013-04-09 11:01:00,50.3,48.4,29.71,SE,144,7.0,9.0,93,0.07,,,1.46,Wunderground v.1.15,2013-04-09 16:01:00,
2013-04-09 11:06:00,50.4,48.5,29.66,ESE,105,14.0,18.0,93,0.05,,,1.46,Wunderground v.1.15,2013-04-09 16:06:00,
2013-04-09 11:11:00,50.4,48.5,29.66,SSE,162,8.0,10.0,93,0.00,,,1.46,Wunderground v.1.15,2013-04-09 16:11:00,
2013-04-09 11:16:00,50.6,48.9,29.70,SSE,155,9.0,14.0,94,0.00,,,1.46,Wunderground v.1.15,2013-04-09 16:16:00,
2013-04-09 11:22:00,50.9,49.2,29.73,SE,146,0.0,8.0,94,0.00,,,1.46,Wunderground v.1.15,2013-04-09 16:22:00,
2013-04-09 11:27:00,51.3,49.6,29.75,North,355,16.0,16.0,94,0.00,,,1.46,Wunderground v.1.15,2013-04-09 16:27:00,
2013-04-09 11:32:00,50.6,48.7,29.75,NNW,332,12.0,12.0,93,0.00,,,1.46,Wunderground v.1.15,2013-04-09 16:32:00,
2013-04-09 11:37:00,50.7,48.7,29.76,North,5,18.0,18.0,93,0.00,,,1.46,Wunderground v.1.15,2013-04-09 16:37:00,
2013-04-09 11:42:00,50.3,48.4,29.74,NE,37,5.0,17.0,93,0.00,,,1.46,Wunderground v.1.15,2013-04-09 16:42:00,
2013-04-09 11:47:00,50.1,48.2,29.73,East,92,5.0,17.0,93,0.00,,,1.46,Wunderground v.1.15,2013-04-09 16:47:00,
2013-04-09 11:52:00,50.5,48.8,29.74,North,9,10.0,10.0,94,0.00,,,1.46,Wunderground v.1.15,2013-04-09 16:52:00,
2013-04-09 11:57:00,50.6,48.7,29.75,NNE,26,7.0,12.0,93,0.00,,,1.46,Wunderground v.1.15,2013-04-09 16:57:00,
2013-04-09 12:02:00,50.5,48.6,29.75,NE,49,6.0,12.0,93,0.00,,,1.46,Wunderground v.1.15,2013-04-09 17:02:00,
2013-04-09 12:07:00,50.3,48.4,29.75,ENE,76,7.0,12.0,93,0.00,,,1.46,Wunderground v.1.15,2013-04-09 17:07:00,
2013-04-09 12:13:00,50.1,48.2,29.75,NE,42,5.0,11.0,93,0.00,,,1.46,Wunderground v.1.15,2013-04-09 17:13:00,
2013-04-09 12:18:00,50.0,48.1,29.75,NE,36,9.0,13.0,93,0.00,,,1.46,Wunderground v.1.15,2013-04-09 17:18:00,
2013-04-09 12:23:00,49.9,48.0,29.75,NE,44,7.0,8.0,93,0.00,,,1.46,Wunderground v.1.15,2013-04-09 17:23:00,
2013-04-09 12:28:00,49.9,48.0,29.75,NE,49,11.0,12.0,93,0.00,,,1.46,Wunderground v.1.15,2013-04-09 17:28:00,
2013-04-09 12:33:00,49.8,47.9,29.75,NE,37,9.0,11.0,93,0.00,,,1.46,Wunderground v.1.15,2013-04-09 17:33:00,
2013-04-09 12:38:00,49.8,47.9,29.75,NE,50,7.0,14.0,93,0.00,,,1.46,Wunderground v.1.15,2013-04-09 17:38:00,
2013-04-09 12:43:00,49.8,47.9,29.75,NE,44,11.0,15.0,93,0.00,,,1.46,Wunderground v.1.15,2013-04-09 17:43:00,
2013-04-09 12:48:00,49.9,48.0,29.75,ENE,58,6.0,15.0,93,0.00,,,1.46,Wunderground v.1.15,2013-04-09 17:48:00,
2013-04-09 12:53:00,50.1,48.2,29.75,ENE,57,5.0,10.0,93,0.00,,,1.46,Wunderground v.1.15,2013-04-09 17:53:00,
2013-04-09 12:58:00,50.2,48.3,29.75,ENE,69,7.0,10.0,93,0.00,,,1.46,Wunderground v.1.15,2013-04-09 17:58:00,
2013-04-09 13:03:00,50.1,48.2,29.75,NE,50,6.0,10.0,93,0.00,,,1.46,Wunderground v.1.15,2013-04-09 18:03:00,
2013-04-09 13:08:00,50.2,48.3,29.75,ENE,57,6.0,10.0,93,0.00,,,1.46,Wunderground v.1.15,2013-04-09 18:08:00,
2013-04-09 13:13:00,50.3,48.4,29.75,NE,54,6.0,10.0,93,0.00,,,1.46,Wunderground v.1.15,2013-04-09 18:13:00,
2013-04-09 13:18:00,50.1,47.9,29.75,NE,53,7.0,14.0,92,0.00,,,1.46,Wunderground v.1.15,2013-04-09 18:18:00,
2013-04-09 13:23:00,50.3,48.4,29.74,ENE,63,6.0,11.0,93,0.00,,,1.46,Wunderground v.1.15,2013-04-09 18:23:00,
2013-04-09 13:28:00,50.8,48.8,29.74,ENE,78,6.0,11.0,93,0.00,,,1.46,Wunderground v.1.15,2013-04-09 18:28:00,
2013-04-09 13:33:00,50.6,48.4,29.74,NE,46,11.0,11.0,92,0.00,,,1.46,Wunderground v.1.15,2013-04-09 18:33:00,
2013-04-09 13:38:00,50.6,48.4,29.74,ENE,69,7.0,11.0,92,0.00,,,1.46,Wunderground v.1.15,2013-04-09 18:38:00,
2013-04-09 13:44:00,50.5,48.3,29.74,ENE,65,6.0,12.0,92,0.00,,,1.46,Wunderground v.1.15,2013-04-09 18:44:00,
2013-04-09 13:49:00,50.6,48.4,29.74,NE,48,5.0,13.0,92,0.00,,,1.46,Wunderground v.1.15,2013-04-09 18:49:00,
2013-04-09 13:54:00,50.6,48.4,29.75,ENE,61,5.0,13.0,92,0.00,,,1.46,Wunderground v.1.15,2013-04-09 18:54:00,
2013-04-09 13:59:00,50.3,47.8,29.75,NE,42,8.0,13.0,91,0.00,,,1.46,Wunderground v.1.15,2013-04-09 18:59:00,
2013-04-09 14:04:00,50.1,47.9,29.75,NE,45,9.0,13.0,92,0.00,,,1.46,Wunderground v.1.15,2013-04-09 19:04:00,
2013-04-09 14:09:00,50.1,47.9,29.75,ENE,71,5.0,13.0,92,0.00,,,1.46,Wunderground v.1.15,2013-04-09 19:09:00,
2013-04-09 14:15:00,50.3,48.1,29.76,NE,50,7.0,10.0,92,0.00,,,1.46,Wunderground v.1.15,2013-04-09 19:15:00,
2013-04-09 14:20:00,50.2,48.0,29.76,NE,38,7.0,7.0,92,0.00,,,1.46,Wunderground v.1.15,2013-04-09 19:20:00,
2013-04-09 14:25:00,50.0,47.5,29.77,NE,38,9.0,13.0,91,0.00,,,1.46,Wunderground v.1.15,2013-04-09 19:25:00,
2013-04-09 14:30:00,49.8,47.3,29.77,NE,44,5.0,14.0,91,0.00,,,1.46,Wunderground v.1.15,2013-04-09 19:30:00,
2013-04-09 14:35:00,49.5,47.0,29.77,NE,36,10.0,11.0,91,0.00,,,1.46,Wunderground v.1.15,2013-04-09 19:35:00,
2013-04-09 14:40:00,49.4,46.9,29.78,NNE,24,7.0,11.0,91,0.00,,,1.46,Wunderground v.1.15,2013-04-09 19:40:00,
2013-04-09 14:45:00,49.2,46.7,29.78,NNE,30,9.0,15.0,91,0.00,,,1.46,Wunderground v.1.15,2013-04-09 19:45:00,
2013-04-09 14:50:00,49.0,46.5,29.78,NE,46,8.0,10.0,91,0.00,,,1.46,Wunderground v.1.15,2013-04-09 19:50:00,
2013-04-09 14:55:00,48.9,46.4,29.78,NNE,30,13.0,14.0,91,0.00,,,1.46,Wunderground v.1.15,2013-04-09 19:55:00,
2013-04-09 15:00:00,48.7,46.2,29.78,NE,34,9.0,12.0,91,0.00,,,1.46,Wunderground v.1.15,2013-04-09 20:00:00,
2013-04-09 15:05:00,48.7,46.2,29.79,NE,34,10.0,17.0,91,0.00,,,1.46,Wunderground v.1.15,2013-04-09 20:05:00,
2013-04-09 15:10:00,48.7,46.2,29.79,NNE,13,14.0,14.0,91,0.00,,,1.46,Wunderground v.1.15,2013-04-09 20:10:00,
2013-04-09 15:16:00,48.6,46.1,29.79,NNE,30,7.0,17.0,91,0.00,,,1.46,Wunderground v.1.15,2013-04-09 20:16:00,
2013-04-09 15:21:00,48.5,46.0,29.79,ENE,58,7.0,12.0,91,0.00,,,1.46,Wunderground v.1.15,2013-04-09 20:21:00,
2013-04-09 15:26:00,48.4,45.9,29.79,NE,38,11.0,15.0,91,0.00,,,1.46,Wunderground v.1.15,2013-04-09 20:26:00,
2013-04-09 15:31:00,48.4,45.9,29.79,NE,44,7.0,12.0,91,0.00,,,1.46,Wunderground v.1.15,2013-04-09 20:31:00,
2013-04-09 15:36:00,48.1,45.6,29.79,NE,40,11.0,15.0,91,0.00,,,1.46,Wunderground v.1.15,2013-04-09 20:36:00,
2013-04-09 15:41:00,47.8,45.3,29.79,NE,42,16.0,16.0,91,0.00,,,1.46,Wunderground v.1.15,2013-04-09 20:41:00,
2013-04-09 15:47:00,47.5,45.0,29.78,North,10,11.0,18.0,91,0.00,,,1.46,Wunderground v.1.15,2013-04-09 20:47:00,
2013-04-09 15:52:00,47.2,44.7,29.79,NE,52,15.0,16.0,91,0.00,,,1.46,Wunderground v.1.15,2013-04-09 20:52:00,
2013-04-09 15:57:00,47.0,44.5,29.79,NE,38,13.0,16.0,91,0.00,,,1.46,Wunderground v.1.15,2013-04-09 20:57:00,
2013-04-09 16:02:00,46.9,44.4,29.79,NE,42,11.0,17.0,91,0.00,,,1.46,Wunderground v.1.15,2013-04-09 21:02:00,
2013-04-09 16:07:00,46.9,44.4,29.79,NE,40,11.0,17.0,91,0.00,,,1.46,Wunderground v.1.15,2013-04-09 21:07:00,
2013-04-09 16:12:00,46.7,44.2,29.79,NNE,23,6.0,15.0,91,0.00,,,1.46,Wunderground v.1.15,2013-04-09 21:12:00,
2013-04-09 16:17:00,46.6,44.1,29.79,NE,51,10.0,15.0,91,0.00,,,1.46,Wunderground v.1.15,2013-04-09 21:17:00,
2013-04-09 16:22:00,46.4,43.9,29.79,ENE,61,14.0,17.0,91,0.00,,,1.46,Wunderground v.1.15,2013-04-09 21:22:00,
2013-04-09 16:27:00,46.3,43.8,29.80,NE,41,11.0,17.0,91,0.00,,,1.46,Wunderground v.1.15,2013-04-09 21:27:00,
2013-04-09 16:32:00,46.0,43.2,29.79,ENE,60,14.0,18.0,90,0.00,,,1.46,Wunderground v.1.15,2013-04-09 21:32:00,
2013-04-09 16:37:00,46.0,43.5,29.80,NE,40,13.0,18.0,91,0.00,,,1.46,Wunderground v.1.15,2013-04-09 21:37:00,
2013-04-09 16:42:00,45.5,42.7,29.80,ENE,57,13.0,20.0,90,0.00,,,1.46,Wunderground v.1.15,2013-04-09 21:42:00,
2013-04-09 16:47:00,45.3,42.5,29.80,NNE,20,12.0,20.0,90,0.00,,,1.46,Wunderground v.1.15,2013-04-09 21:47:00,
2013-04-09 16:52:00,45.1,42.3,29.80,NE,46,11.0,18.0,90,0.00,,,1.46,Wunderground v.1.15,2013-04-09 21:52:00,
2013-04-09 16:57:00,44.9,42.1,29.80,ENE,66,15.0,20.0,90,0.00,,,1.46,Wunderground v.1.15,2013-04-09 21:57:00,
2013-04-09 17:02:00,44.7,41.9,29.81,NNE,32,13.0,17.0,90,0.00,,,1.46,Wunderground v.1.15,2013-04-09 22:02:00,
2013-04-09 17:08:00,44.5,41.5,29.80,NE,37,9.0,17.0,89,0.00,,,1.46,Wunderground v.1.15,2013-04-09 22:08:00,
2013-04-09 17:13:00,44.5,41.5,29.80,NE,44,14.0,17.0,89,0.00,,,1.46,Wunderground v.1.15,2013-04-09 22:13:00,
2013-04-09 17:18:00,44.5,41.5,29.81,NE,50,9.0,17.0,89,0.00,,,1.46,Wunderground v.1.15,2013-04-09 22:18:00,
2013-04-09 17:23:00,44.4,41.4,29.81,NE,50,13.0,20.0,89,0.00,,,1.46,Wunderground v.1.15,2013-04-09 22:23:00,
2013-04-09 17:28:00,44.4,41.4,29.82,NE,53,8.0,20.0,89,0.00,,,1.46,Wunderground v.1.15,2013-04-09 22:28:00,
2013-04-09 17:33:00,44.3,41.3,29.81,ENE,63,10.0,19.0,89,0.00,,,1.46,Wunderground v.1.15,2013-04-09 22:33:00,
2013-04-09 17:38:00,44.2,41.2,29.82,NE,53,9.0,19.0,89,0.00,,,1.46,Wunderground v.1.15,2013-04-09 22:38:00,
2013-04-09 17:43:00,44.0,41.0,29.81,NE,40,18.0,20.0,89,0.00,,,1.46,Wunderground v.1.15,2013-04-09 22:43:00,
2013-04-09 17:48:00,43.8,40.8,29.81,NE,53,14.0,20.0,89,0.00,,,1.46,Wunderground v.1.15,2013-04-09 22:48:00,
2013-04-09 17:53:00,43.8,40.8,29.81,NNE,30,13.0,14.0,89,0.00,,,1.46,Wunderground v.1.15,2013-04-09 22:53:00,
2013-04-09 17:58:00,43.8,40.8,29.81,NE,38,8.0,18.0,89,0.00,,,1.46,Wunderground v.1.15,2013-04-09 22:58:00,
2013-04-09 18:03:00,43.9,41.2,29.82,ENE,65,8.0,11.0,90,0.00,,,1.46,Wunderground v.1.15,2013-04-09 23:03:00,
2013-04-09 18:08:00,43.9,40.9,29.82,NE,45,13.0,15.0,89,0.00,,,1.46,Wunderground v.1.15,2013-04-09 23:08:00,
2013-04-09 18:13:00,43.8,40.8,29.82,NE,46,13.0,14.0,89,0.00,,,1.46,Wunderground v.1.15,2013-04-09 23:13:00,
2013-04-09 18:19:00,43.7,40.7,29.82,ENE,71,8.0,17.0,89,0.00,,,1.46,Wunderground v.1.15,2013-04-09 23:19:00,
2013-04-09 18:24:00,43.7,41.0,29.81,NE,46,9.0,16.0,90,0.00,,,1.46,Wunderground v.1.15,2013-04-09 23:24:00,
2013-04-09 18:29:00,43.7,41.0,29.80,ENE,64,12.0,17.0,90,0.00,,,1.46,Wunderground v.1.15,2013-04-09 23:29:00,
2013-04-09 18:34:00,43.7,41.0,29.81,NE,55,5.0,17.0,90,0.00,,,1.46,Wunderground v.1.15,2013-04-09 23:34:00,
2013-04-09 18:39:00,43.7,40.7,29.81,East,80,16.0,17.0,89,0.00,,,1.46,Wunderground v.1.15,2013-04-09 23:39:00,
2013-04-09 18:44:00,43.6,40.6,29.81,ENE,59,12.0,19.0,89,0.00,,,1.46,Wunderground v.1.15,2013-04-09 23:44:00,
2013-04-09 18:49:00,43.5,40.5,29.80,ENE,59,12.0,20.0,89,0.00,,,1.46,Wunderground v.1.15,2013-04-09 23:49:00,
2013-04-09 18:54:00,43.5,40.5,29.81,ENE,57,15.0,15.0,89,0.00,,,1.46,Wunderground v.1.15,2013-04-09 23:54:00,
2013-04-09 18:59:00,43.5,40.5,29.81,East,91,10.0,19.0,89,0.00,,,1.46,Wunderground v.1.15,2013-04-09 23:59:00,
2013-04-09 19:04:00,43.5,40.5,29.81,NE,52,13.0,17.0,89,0.00,,,1.46,Wunderground v.1.15,2013-04-10 00:04:00,
2013-04-09 19:09:00,43.5,40.8,29.81,ENE,65,8.0,17.0,90,0.00,,,1.46,Wunderground v.1.15,2013-04-10 00:09:00,
2013-04-09 19:15:00,43.5,40.8,29.81,ENE,67,6.0,12.0,90,0.00,,,1.46,Wunderground v.1.15,2013-04-10 00:15:00,
2013-04-09 19:20:00,43.5,40.8,29.81,ENE,69,7.0,14.0,90,0.00,,,1.46,Wunderground v.1.15,2013-04-10 00:20:00,
2013-04-09 19:25:00,43.6,40.9,29.80,NE,56,11.0,18.0,90,0.00,,,1.46,Wunderground v.1.15,2013-04-10 00:25:00,
2013-04-09 19:30:00,43.6,40.9,29.80,ENE,63,9.0,18.0,90,0.00,,,1.46,Wunderground v.1.15,2013-04-10 00:30:00,
2013-04-09 19:35:00,43.5,40.8,29.80,ENE,68,6.0,15.0,90,0.00,,,1.46,Wunderground v.1.15,2013-04-10 00:35:00,
2013-04-09 19:40:00,43.5,40.8,29.80,ENE,64,8.0,15.0,90,0.00,,,1.46,Wunderground v.1.15,2013-04-10 00:40:00,
2013-04-09 19:45:00,43.5,40.8,29.80,ENE,63,7.0,16.0,90,0.00,,,1.46,Wunderground v.1.15,2013-04-10 00:45:00,
2013-04-09 19:50:00,43.5,40.8,29.81,East,96,10.0,17.0,90,0.00,,,1.46,Wunderground v.1.15,2013-04-10 00:50:00,
2013-04-09 19:55:00,43.5,40.8,29.81,East,87,5.0,13.0,90,0.00,,,1.46,Wunderground v.1.15,2013-04-10 00:55:00,
2013-04-09 20:00:00,43.5,40.8,29.82,ENE,69,6.0,13.0,90,0.00,,,1.46,Wunderground v.1.15,2013-04-10 01:00:00,
2013-04-09 20:05:00,43.6,40.9,29.82,ENE,59,7.0,14.0,90,0.00,,,1.46,Wunderground v.1.15,2013-04-10 01:05:00,
2013-04-09 20:10:00,43.6,40.9,29.82,NE,53,10.0,14.0,90,0.00,,,1.46,Wunderground v.1.15,2013-04-10 01:10:00,
2013-04-09 20:15:00,43.6,40.9,29.82,ENE,71,5.0,14.0,90,0.00,,,1.46,Wunderground v.1.15,2013-04-10 01:15:00,
2013-04-09 20:20:00,43.7,41.0,29.82,East,91,7.0,14.0,90,0.00,,,1.46,Wunderground v.1.15,2013-04-10 01:20:00,
2013-04-09 20:25:00,43.7,41.0,29.82,East,98,6.0,15.0,90,0.00,,,1.46,Wunderground v.1.15,2013-04-10 01:25:00,
2013-04-09 20:30:00,43.7,41.0,29.82,East,88,4.0,15.0,90,0.00,,,1.46,Wunderground v.1.15,2013-04-10 01:30:00,
2013-04-09 20:35:00,43.6,40.9,29.81,East,89,4.0,13.0,90,0.00,,,1.46,Wunderground v.1.15,2013-04-10 01:35:00,
2013-04-09 20:40:00,43.6,40.9,29.81,East,97,7.0,13.0,90,0.00,,,1.46,Wunderground v.1.15,2013-04-10 01:40:00,
2013-04-09 20:45:00,43.6,40.9,29.83,East,84,4.0,11.0,90,0.00,,,1.46,Wunderground v.1.15,2013-04-10 01:45:00,
2013-04-09 20:50:00,43.6,40.9,29.83,East,88,4.0,7.0,90,0.00,,,1.46,Wunderground v.1.15,2013-04-10 01:50:00,
2013-04-09 20:55:00,43.6,40.9,29.82,East,94,4.0,11.0,90,0.00,,,1.46,Wunderground v.1.15,2013-04-10 01:55:00,
2013-04-09 21:00:00,43.6,40.9,29.83,East,98,5.0,6.0,90,0.00,,,1.46,Wunderground v.1.15,2013-04-10 02:00:00,
2013-04-09 21:05:00,43.7,41.0,29.84,East,79,10.0,16.0,90,0.00,,,1.46,Wunderground v.1.15,2013-04-10 02:05:00,
2013-04-09 21:10:00,43.8,41.1,29.84,East,96,6.0,6.0,90,0.00,,,1.46,Wunderground v.1.15,2013-04-10 02:10:00,
2013-04-09 21:15:00,43.8,41.1,29.85,East,90,4.0,11.0,90,0.00,,,1.46,Wunderground v.1.15,2013-04-10 02:15:00,
2013-04-09 21:20:00,43.8,41.1,29.85,East,94,6.0,6.0,90,0.00,,,1.46,Wunderground v.1.15,2013-04-10 02:20:00,
2013-04-09 21:25:00,43.8,41.1,29.85,East,94,7.0,14.0,90,0.00,,,1.46,Wunderground v.1.15,2013-04-10 02:25:00,
2013-04-09 21:30:00,43.9,41.2,29.85,SE,124,11.0,11.0,90,0.00,,,1.46,Wunderground v.1.15,2013-04-10 02:30:00,
2013-04-09 21:35:00,43.8,41.1,29.84,East,96,7.0,12.0,90,0.00,,,1.46,Wunderground v.1.15,2013-04-10 02:35:00,
2013-04-09 21:40:00,43.7,41.0,29.84,ESE,110,13.0,16.0,90,0.00,,,1.47,Wunderground v.1.15,2013-04-10 02:40:00,
2013-04-09 21:45:00,43.6,40.9,29.84,SE,130,7.0,16.0,90,0.00,,,1.47,Wunderground v.1.15,2013-04-10 02:45:00,
2013-04-09 21:50:00,43.5,40.8,29.83,ESE,116,9.0,12.0,90,0.05,,,1.48,Wunderground v.1.15,2013-04-10 02:50:00,
2013-04-09 21:55:00,43.4,40.9,29.83,East,82,5.0,14.0,91,0.05,,,1.48,Wunderground v.1.15,2013-04-10 02:55:00,
2013-04-09 22:00:00,43.4,40.9,29.83,ESE,109,7.0,9.0,91,0.05,,,1.48,Wunderground v.1.15,2013-04-10 03:00:00,
2013-04-09 22:05:00,43.4,40.9,29.83,ESE,104,7.0,11.0,91,0.04,,,1.48,Wunderground v.1.15,2013-04-10 03:05:00,
2013-04-09 22:10:00,43.3,40.8,29.83,ESE,105,4.0,6.0,91,0.00,,,1.49,Wunderground v.1.15,2013-04-10 03:10:00,
2013-04-09 22:16:00,43.3,40.8,29.84,East,88,9.0,12.0,91,0.00,,,1.49,Wunderground v.1.15,2013-04-10 03:16:00,
2013-04-09 22:21:00,43.2,40.8,29.83,ESE,117,4.0,11.0,91,0.00,,,1.49,Wunderground v.1.15,2013-04-10 03:21:00,
2013-04-09 22:26:00,43.2,40.8,29.82,ESE,109,4.0,11.0,91,0.00,,,1.49,Wunderground v.1.15,2013-04-10 03:26:00,
2013-04-09 22:32:00,43.2,40.8,29.82,ESE,122,4.0,10.0,91,0.00,,,1.49,Wunderground v.1.15,2013-04-10 03:32:00,
2013-04-09 22:37:00,43.1,40.7,29.82,ESE,103,2.0,10.0,91,0.00,,,1.49,Wunderground v.1.15,2013-04-10 03:37:00,
2013-04-09 22:42:00,43.2,41.0,29.83,ESE,113,0.0,8.0,92,0.00,,,1.49,Wunderground v.1.15,2013-04-10 03:42:00,
2013-04-09 22:47:00,43.2,41.0,29.83,East,84,3.0,9.0,92,0.00,,,1.49,Wunderground v.1.15,2013-04-10 03:47:00,
2013-04-09 22:52:00,43.1,40.9,29.84,ESE,104,3.0,7.0,92,0.00,,,1.49,Wunderground v.1.15,2013-04-10 03:52:00,
2013-04-09 22:57:00,43.2,41.0,29.85,ENE,62,4.0,7.0,92,0.00,,,1.49,Wunderground v.1.15,2013-04-10 03:57:00,
2013-04-09 23:00:00,43.1,40.9,29.85,ENE,61,5.0,5.0,92,0.00,,,1.49,Wunderground v.1.15,2013-04-10 04:00:00,
2013-04-09 23:05:00,43.1,40.9,29.86,NE,40,7.0,13.0,92,0.00,,,1.50,Wunderground v.1.15,2013-04-10 04:05:00,
2013-04-09 23:10:00,43.1,40.9,29.86,NE,42,5.0,6.0,92,0.00,,,1.50,Wunderground v.1.15,2013-04-10 04:10:00,
2013-04-09 23:15:00,43.0,40.8,29.87,NE,40,5.0,16.0,92,0.00,,,1.50,Wunderground v.1.15,2013-04-10 04:15:00,
2013-04-09 23:21:00,42.9,40.7,29.88,NNE,28,6.0,8.0,92,0.04,,,1.51,Wunderground v.1.15,2013-04-10 04:21:00,
2013-04-09 23:26:00,42.8,40.6,29.88,NE,40,11.0,12.0,92,0.04,,,1.51,Wunderground v.1.15,2013-04-10 04:26:00,
2013-04-09 23:31:00,42.6,40.4,29.88,NE,35,7.0,9.0,92,0.04,,,1.51,Wunderground v.1.15,2013-04-10 04:31:00,
2013-04-09 23:36:00,42.5,40.3,29.87,NE,52,8.0,15.0,92,0.04,,,1.51,Wunderground v.1.15,2013-04-10 04:36:00,
2013-04-09 23:41:00,42.4,40.2,29.88,ENE,62,14.0,14.0,92,0.00,,,1.51,Wunderground v.1.15,2013-04-10 04:41:00,
2013-04-09 23:46:00,42.3,40.1,29.88,NE,41,9.0,15.0,92,0.00,,,1.51,Wunderground v.1.15,2013-04-10 04:46:00,
2013-04-09 23:51:00,42.2,40.0,29.87,NE,55,6.0,15.0,92,0.00,,,1.51,Wunderground v.1.15,2013-04-10 04:51:00,
2013-04-09 23:56:00,42.1,39.9,29.87,NE,53,14.0,15.0,92,0.00,,,1.51,Wunderground v.1.15,2013-04-10 04:56:00,